createdAt,value
2018-01-14T00:02:28.115Z,34.73
2018-01-14T00:04:56.377Z,34.20
2018-01-14T00:07:23.884Z,41.67
2018-01-14T00:09:51.410Z,40.50
2018-01-14T00:12:19.764Z,45.43
2018-01-14T00:14:48.095Z,44.27
2018-01-14T00:17:15.872Z,45.47
2018-01-14T00:19:43.948Z,45.43
2018-01-14T00:22:12.036Z,42.87
2018-01-14T00:24:39.809Z,44.40
2018-01-14T00:27:08.292Z,44.10
2018-01-14T00:29:36.357Z,43.57
2018-01-14T00:32:04.705Z,40.23
2018-01-14T00:34:32.520Z,39.30
2018-01-14T00:37:01.100Z,37.10
2018-01-14T00:39:28.578Z,36.93
2018-01-14T00:41:56.848Z,34.00
2018-01-14T00:44:24.348Z,36.13
2018-01-14T00:46:51.835Z,36.23
2018-01-14T00:49:19.318Z,33.23
2018-01-14T00:51:46.850Z,32.17
2018-01-14T00:54:14.405Z,33.90
2018-01-14T00:56:41.984Z,34.17
2018-01-14T00:59:09.484Z,35.27
2018-01-14T01:01:37.718Z,35.20
2018-01-14T01:04:05.203Z,35.17
2018-01-14T01:06:33.491Z,35.67
2018-01-14T01:09:01.756Z,35.57
2018-01-14T01:11:29.246Z,36.17
2018-01-14T01:13:56.756Z,33.97
2018-01-14T01:16:24.241Z,35.43
2018-01-14T01:18:52.520Z,34.03
2018-01-14T01:21:20.779Z,36.47
2018-01-14T01:23:48.252Z,32.10
2018-01-14T01:26:16.496Z,35.07
2018-01-14T01:28:44.056Z,31.80
2018-01-14T01:31:11.540Z,36.37
2018-01-14T01:33:39.016Z,33.97
2018-01-14T01:36:07.277Z,35.20
2018-01-14T01:38:35.246Z,36.47
2018-01-14T01:41:02.717Z,38.77
2018-01-14T01:43:30.979Z,34.20
2018-01-14T01:45:58.461Z,36.33
2018-01-14T01:48:26.717Z,35.47
2018-01-14T01:50:54.220Z,36.80
2018-01-14T01:53:21.700Z,37.27
2018-01-14T01:55:49.171Z,35.07
2018-01-14T01:58:16.674Z,33.50
2018-01-14T02:00:44.910Z,33.73
2018-01-14T02:03:12.376Z,35.63
2018-01-14T02:05:39.868Z,33.63
2018-01-14T02:08:08.108Z,32.57
2018-01-14T02:10:35.583Z,35.10
2018-01-14T02:13:03.089Z,32.33
2018-01-14T02:15:30.559Z,36.77
2018-01-14T02:17:58.029Z,35.13
2018-01-14T02:20:25.524Z,34.90
2018-01-14T02:22:53.761Z,32.60
2018-01-14T02:25:21.236Z,34.03
2018-01-14T02:27:48.793Z,33.60
2018-01-14T02:30:16.280Z,32.77
2018-01-14T02:32:44.520Z,30.17
2018-01-14T02:35:12.043Z,32.50
2018-01-14T02:37:39.595Z,33.23
2018-01-14T02:40:07.832Z,31.93
2018-01-14T02:42:35.329Z,34.63
2018-01-14T02:45:03.577Z,33.43
2018-01-14T02:47:31.118Z,33.70
2018-01-14T02:49:58.624Z,30.73
2018-01-14T02:52:26.868Z,31.73
2018-01-14T02:54:54.340Z,31.70
2018-01-14T02:57:21.833Z,31.90
2018-01-14T02:59:49.360Z,32.43
2018-01-14T03:02:16.836Z,32.60
2018-01-14T03:04:45.101Z,33.57
2018-01-14T03:07:13.345Z,33.60
2018-01-14T03:09:40.815Z,33.67
2018-01-14T03:12:08.308Z,32.37
2018-01-14T03:14:36.553Z,30.33
2018-01-14T03:17:04.027Z,31.60
2018-01-14T03:19:32.307Z,33.77
2018-01-14T03:22:00.548Z,32.30
2018-01-14T03:24:28.016Z,31.00
2018-01-14T03:26:55.513Z,31.20
2018-01-14T03:29:23.755Z,34.33
2018-01-14T03:31:55.375Z,33.70
2018-01-14T03:34:22.875Z,33.03
2018-01-14T03:36:50.412Z,31.87
2018-01-14T03:39:17.888Z,32.53
2018-01-14T03:41:45.395Z,30.27
2018-01-14T03:44:12.897Z,32.83
2018-01-14T03:46:40.402Z,29.73
2018-01-14T03:49:08.664Z,30.70
2018-01-14T03:51:36.901Z,31.20
2018-01-14T03:54:04.383Z,28.87
2018-01-14T03:56:33.373Z,27.50
2018-01-14T03:59:00.844Z,29.53
2018-01-14T04:01:28.328Z,29.33
2018-01-14T04:03:56.588Z,30.87
2018-01-14T04:06:24.830Z,29.70
2018-01-14T04:08:52.305Z,32.40
2018-01-14T04:11:19.833Z,31.20
2018-01-14T04:13:47.312Z,30.50
2018-01-14T04:16:14.785Z,30.73
2018-01-14T04:18:42.338Z,28.00
2018-01-14T04:21:09.815Z,31.83
2018-01-14T04:23:37.290Z,30.07
2018-01-14T04:26:05.696Z,30.27
2018-01-14T04:28:33.173Z,30.87
2018-01-14T04:31:00.644Z,29.90
2018-01-14T04:33:28.147Z,28.50
2018-01-14T04:35:56.406Z,30.40
2018-01-14T04:38:23.885Z,27.97
2018-01-14T04:40:52.150Z,28.60
2018-01-14T04:43:20.404Z,30.20
2018-01-14T04:45:47.875Z,27.10
2018-01-14T04:48:15.381Z,29.30
2018-01-14T04:50:42.856Z,27.30
2018-01-14T04:53:10.339Z,29.83
2018-01-14T04:55:37.835Z,25.77
2018-01-14T04:58:06.244Z,29.80
2018-01-14T05:00:33.720Z,26.80
2018-01-14T05:03:01.226Z,27.10
2018-01-14T05:05:29.466Z,25.30
2018-01-14T05:07:56.944Z,26.50
2018-01-14T05:10:25.216Z,26.30
2018-01-14T05:12:52.683Z,25.33
2018-01-14T05:15:20.161Z,24.60
2018-01-14T05:17:48.428Z,25.63
2018-01-14T05:20:16.704Z,25.20
2018-01-14T05:22:44.950Z,25.20
2018-01-14T05:25:12.447Z,24.33
2018-01-14T05:27:40.692Z,25.77
2018-01-14T05:30:08.166Z,23.87
2018-01-14T05:32:36.426Z,26.00
2018-01-14T05:35:03.892Z,21.03
2018-01-14T05:37:32.124Z,22.43
2018-01-14T05:39:59.643Z,21.40
2018-01-14T05:42:27.115Z,20.83
2018-01-14T05:44:55.380Z,22.07
2018-01-14T05:47:23.648Z,21.97
2018-01-14T05:49:51.121Z,22.43
2018-01-14T05:52:19.372Z,21.20
2018-01-14T05:54:46.878Z,24.10
2018-01-14T05:57:14.347Z,21.30
2018-01-14T05:59:41.832Z,22.63
2018-01-14T06:02:09.334Z,19.40
2018-01-14T06:04:37.568Z,20.30
2018-01-14T06:07:05.088Z,20.20
2018-01-14T06:09:32.578Z,22.07
2018-01-14T06:12:06.988Z,20.07
2018-01-14T06:14:35.811Z,21.77
2018-01-14T06:17:04.088Z,19.97
2018-01-14T06:19:31.557Z,19.23
2018-01-14T06:22:06.040Z,22.40
2018-01-14T06:24:34.116Z,19.93
2018-01-14T06:27:02.135Z,19.37
2018-01-14T06:29:30.744Z,21.13
2018-01-14T06:31:59.537Z,18.60
2018-01-14T06:34:27.381Z,23.00
2018-01-14T06:36:55.932Z,21.87
2018-01-14T06:39:24.025Z,21.43
2018-01-14T06:41:52.311Z,20.30
2018-01-14T06:44:19.789Z,22.87
2018-01-14T06:46:48.033Z,21.20
2018-01-14T06:49:15.865Z,21.47
2018-01-14T06:51:43.901Z,18.47
2018-01-14T06:54:12.416Z,20.43
2018-01-14T06:56:40.431Z,18.83
2018-01-14T06:59:08.877Z,19.40
2018-01-14T07:01:36.628Z,17.53
2018-01-14T07:04:04.164Z,19.77
2018-01-14T07:06:32.398Z,19.83
2018-01-14T07:09:00.862Z,19.10
2018-01-14T07:11:29.061Z,19.13
2018-01-14T07:13:57.056Z,19.67
2018-01-14T07:16:25.434Z,18.70
2018-01-14T07:18:53.388Z,19.90
2018-01-14T07:21:21.247Z,21.20
2018-01-14T07:23:49.179Z,18.70
2018-01-14T07:26:17.066Z,20.63
2018-01-14T07:28:46.731Z,20.47
2018-01-14T07:31:15.267Z,22.00
2018-01-14T07:33:43.190Z,21.40
2018-01-14T07:36:11.968Z,20.80
2018-01-14T07:38:40.260Z,23.33
2018-01-14T07:41:08.524Z,21.40
2018-01-14T07:43:36.836Z,22.10
2018-01-14T07:46:04.717Z,22.40
2018-01-14T07:48:32.219Z,24.47
2018-01-14T07:50:59.704Z,21.87
2018-01-14T07:53:27.184Z,24.00
2018-01-14T07:55:54.681Z,22.87
2018-01-14T07:58:22.171Z,24.50
2018-01-14T08:00:50.426Z,24.97
2018-01-14T08:03:17.929Z,24.40
2018-01-14T08:05:45.549Z,24.00
2018-01-14T08:08:13.023Z,24.30
2018-01-14T08:10:41.312Z,23.90
2018-01-14T08:13:09.567Z,23.10
2018-01-14T08:15:37.083Z,22.43
2018-01-14T08:18:04.589Z,21.30
2018-01-14T08:20:32.082Z,23.73
2018-01-14T08:22:59.614Z,22.67
2018-01-14T08:25:27.879Z,22.43
2018-01-14T08:27:55.361Z,23.07
2018-01-14T08:30:22.840Z,22.00
2018-01-14T08:32:50.356Z,22.97
2018-01-14T08:35:17.836Z,21.87
2018-01-14T08:37:46.079Z,21.57
2018-01-14T08:40:13.622Z,23.30
2018-01-14T08:42:41.107Z,22.73
2018-01-14T08:45:08.601Z,20.57
2018-01-14T08:47:36.127Z,21.73
2018-01-14T08:50:04.373Z,22.73
2018-01-14T08:52:31.846Z,22.87
2018-01-14T08:54:59.357Z,21.43
2018-01-14T08:57:26.829Z,27.40
2018-01-14T08:59:54.318Z,26.43
2018-01-14T09:02:21.825Z,28.97
2018-01-14T09:04:50.112Z,28.53
2018-01-14T09:07:17.594Z,29.57
2018-01-14T09:09:45.156Z,31.30
2018-01-14T09:12:13.375Z,30.37
2018-01-14T09:14:41.683Z,32.67
2018-01-14T09:17:09.145Z,28.90
2018-01-14T09:19:36.630Z,30.60
2018-01-14T09:22:04.104Z,30.87
2018-01-14T09:24:31.595Z,29.43
2018-01-14T09:26:59.847Z,32.33
2018-01-14T09:29:27.368Z,31.90
2018-01-14T09:31:54.892Z,31.33
2018-01-14T09:34:23.137Z,32.30
2018-01-14T09:36:50.613Z,31.30
2018-01-14T09:39:18.115Z,29.33
2018-01-14T09:41:45.636Z,30.73
2018-01-14T09:44:13.129Z,33.53
2018-01-14T09:46:40.644Z,31.13
2018-01-14T09:49:08.123Z,28.43
2018-01-14T09:51:36.372Z,30.37
2018-01-14T09:54:03.877Z,28.70
2018-01-14T09:56:32.209Z,27.30
2018-01-14T09:58:59.684Z,29.40
2018-01-14T10:01:27.181Z,31.17
2018-01-14T10:03:54.675Z,29.33
2018-01-14T10:06:22.168Z,30.40
2018-01-14T10:08:49.728Z,30.57
2018-01-14T10:11:17.229Z,31.03
2018-01-14T10:13:44.701Z,31.20
2018-01-14T10:16:12.203Z,29.73
2018-01-14T10:18:39.676Z,30.03
2018-01-14T10:21:07.921Z,28.00
2018-01-14T10:23:35.423Z,29.33
2018-01-14T10:26:02.910Z,29.87
2018-01-14T10:28:30.397Z,27.97
2018-01-14T10:30:57.902Z,30.33
2018-01-14T10:33:26.185Z,29.40
2018-01-14T10:35:54.450Z,29.00
2018-01-14T10:38:22.708Z,31.20
2018-01-14T10:40:50.179Z,30.17
2018-01-14T10:43:18.425Z,28.57
2018-01-14T10:45:45.928Z,28.40
2018-01-14T10:48:19.594Z,28.80
2018-01-14T10:50:53.386Z,30.77
2018-01-14T10:53:21.848Z,29.77
2018-01-14T10:55:49.596Z,28.17
2018-01-14T10:58:17.387Z,30.20
2018-01-14T11:00:50.538Z,29.17
2018-01-14T11:03:19.845Z,28.60
2018-01-14T11:05:47.316Z,29.20
2018-01-14T11:08:15.928Z,31.60
2018-01-14T11:10:45.027Z,26.97
2018-01-14T11:13:12.536Z,28.00
2018-01-14T11:15:40.782Z,29.40
2018-01-14T11:18:08.368Z,29.80
2018-01-14T11:20:35.844Z,27.57
2018-01-14T11:23:03.318Z,29.27
2018-01-14T11:25:31.587Z,28.13
2018-01-14T11:27:59.064Z,28.33
2018-01-14T11:30:26.557Z,28.03
2018-01-14T11:32:54.101Z,29.27
2018-01-14T11:35:21.609Z,30.73
2018-01-14T11:37:49.881Z,29.20
2018-01-14T11:40:18.148Z,29.50
2018-01-14T11:42:45.620Z,30.80
2018-01-14T11:45:13.863Z,28.70
2018-01-14T11:47:41.356Z,25.77
2018-01-14T11:50:09.744Z,28.70
2018-01-14T11:52:37.281Z,28.20
2018-01-14T11:55:04.778Z,31.50
2018-01-14T11:57:33.392Z,28.57
2018-01-14T12:00:00.900Z,27.67
2018-01-14T12:02:29.171Z,24.83
2018-01-14T12:04:57.454Z,29.37
2018-01-14T12:07:25.700Z,29.90
2018-01-14T12:09:53.208Z,30.97
2018-01-14T12:12:21.852Z,27.17
2018-01-14T12:14:49.336Z,29.40
2018-01-14T12:17:17.604Z,31.70
2018-01-14T12:19:45.856Z,31.50
2018-01-14T12:22:13.324Z,32.60
2018-01-14T12:24:40.833Z,33.93
2018-01-14T12:27:08.322Z,33.67
2018-01-14T12:29:35.816Z,34.70
2018-01-14T12:32:04.112Z,34.10
2018-01-14T12:34:39.257Z,36.80
2018-01-14T12:37:06.837Z,32.77
2018-01-14T12:39:34.317Z,35.20
2018-01-14T12:42:01.788Z,35.53
2018-01-14T12:44:29.335Z,34.73
2018-01-14T12:46:56.918Z,33.30
2018-01-14T12:49:24.399Z,33.37
2018-01-14T12:51:52.660Z,32.73
2018-01-14T12:54:20.136Z,34.47
2018-01-14T12:56:48.376Z,32.47
2018-01-14T12:59:15.868Z,34.23
2018-01-14T13:01:44.117Z,30.83
2018-01-14T13:04:11.648Z,32.30
2018-01-14T13:06:39.142Z,34.30
2018-01-14T13:09:06.630Z,37.07
2018-01-14T13:11:34.949Z,36.03
2018-01-14T13:14:02.444Z,34.23
2018-01-14T13:16:29.929Z,35.70
2018-01-14T13:18:58.167Z,43.00
2018-01-14T13:21:25.659Z,35.63
2018-01-14T13:23:53.899Z,35.67
2018-01-14T13:26:21.375Z,36.00
2018-01-14T13:28:48.895Z,36.10
2018-01-14T13:31:16.377Z,39.47
2018-01-14T13:33:43.968Z,39.37
2018-01-14T13:36:12.245Z,38.23
2018-01-14T13:38:40.500Z,36.97
2018-01-14T13:41:07.985Z,35.73
2018-01-14T13:43:36.247Z,33.33
2018-01-14T13:46:03.721Z,36.23
2018-01-14T13:48:31.963Z,33.23
2018-01-14T13:50:59.465Z,36.93
2018-01-14T13:53:27.708Z,35.37
2018-01-14T13:55:55.272Z,39.27
2018-01-14T13:58:22.768Z,36.73
2018-01-14T14:00:58.011Z,36.57
2018-01-14T14:03:37.076Z,35.70
2018-01-14T14:06:18.227Z,37.93
2018-01-14T14:08:58.740Z,40.47
2018-01-14T14:11:38.124Z,38.93
2018-01-14T14:14:21.750Z,36.67
2018-01-14T14:19:42.043Z,36.00
2018-01-14T14:22:20.327Z,35.70
2018-01-14T14:24:59.845Z,39.47
2018-01-14T14:27:35.549Z,37.20
2018-01-14T14:30:12.601Z,38.17
2018-01-14T14:35:34.200Z,35.10
2018-01-14T14:38:10.367Z,38.17
2018-01-14T14:40:50.327Z,38.60
2018-01-14T14:43:25.840Z,34.90
2018-01-14T14:46:03.262Z,37.70
2018-01-14T14:48:38.805Z,37.53
2018-01-14T14:51:14.715Z,33.80
2018-01-14T14:53:54.394Z,38.10
2018-01-14T14:56:32.390Z,35.37
2018-01-14T14:59:07.313Z,35.80
2018-01-14T15:01:43.857Z,37.43
2018-01-14T15:04:20.175Z,37.67
2018-01-14T15:06:55.268Z,37.63
2018-01-14T15:09:31.643Z,39.80
2018-01-14T15:12:08.643Z,39.57
2018-01-14T15:14:36.669Z,39.60
2018-01-14T15:17:12.694Z,37.57
2018-01-14T15:19:46.079Z,40.53
2018-01-14T15:22:18.617Z,40.00
2018-01-14T15:24:47.486Z,40.67
2018-01-14T15:27:15.267Z,36.33
2018-01-14T15:29:43.731Z,47.07
2018-01-14T15:32:12.419Z,45.80
2018-01-14T15:34:41.120Z,47.10
2018-01-14T15:37:08.648Z,46.30
2018-01-14T15:39:36.364Z,46.60
2018-01-14T15:42:03.865Z,40.67
2018-01-14T15:44:31.496Z,43.00
2018-01-14T15:46:59.012Z,42.60
2018-01-14T15:49:26.611Z,43.30
2018-01-14T15:51:55.500Z,38.57
2018-01-14T15:54:24.005Z,37.80
2018-01-14T15:56:51.884Z,41.20
2018-01-14T15:59:20.856Z,42.77
2018-01-14T16:01:48.466Z,43.67
2018-01-14T16:04:16.095Z,45.30
2018-01-14T16:06:44.920Z,44.93
2018-01-14T16:09:13.581Z,44.40
2018-01-14T16:11:42.222Z,42.03
2018-01-14T16:14:10.226Z,44.80
2018-01-14T16:16:38.646Z,46.63
2018-01-14T16:19:06.823Z,42.67
2018-01-14T16:21:35.961Z,42.27
2018-01-14T16:24:03.651Z,42.20
2018-01-14T16:26:32.552Z,42.27
2018-01-14T16:29:01.489Z,42.50
2018-01-14T16:31:29.255Z,42.10
2018-01-14T16:33:57.634Z,44.07
2018-01-14T16:36:32.540Z,48.47
2018-01-14T16:39:01.091Z,41.83
2018-01-14T16:41:30.411Z,41.90
2018-01-14T16:43:59.498Z,43.83
2018-01-14T16:46:28.687Z,40.60
2018-01-14T16:48:57.419Z,40.93
2018-01-14T16:51:26.717Z,46.00
2018-01-14T16:53:55.298Z,44.10
2018-01-14T16:56:22.804Z,42.70
2018-01-14T16:58:50.579Z,45.63
2018-01-14T17:01:19.116Z,44.00
2018-01-14T17:03:47.193Z,43.53
2018-01-14T17:06:15.709Z,43.33
2018-01-14T17:08:43.543Z,44.20
2018-01-14T17:11:11.374Z,48.37
2018-01-14T17:13:41.008Z,57.87
2018-01-14T17:16:09.115Z,49.17
2018-01-14T17:18:39.216Z,49.60
2018-01-14T17:21:07.238Z,55.30
2018-01-14T17:23:35.517Z,53.97
2018-01-14T17:26:03.873Z,54.63
2018-01-14T17:28:31.489Z,51.93
2018-01-14T17:30:59.363Z,48.60
2018-01-14T17:33:26.935Z,48.70
2018-01-14T17:35:55.048Z,50.03
2018-01-14T17:38:23.323Z,46.23
2018-01-14T17:40:51.339Z,43.97
2018-01-14T17:43:19.519Z,45.53
2018-01-14T17:45:49.164Z,45.00
2018-01-14T17:48:17.971Z,44.40
2018-01-14T17:50:45.822Z,44.37
2018-01-14T17:53:14.764Z,42.27
2018-01-14T17:55:44.283Z,41.90
2018-01-14T17:58:11.924Z,44.93
2018-01-14T18:00:40.034Z,43.20
2018-01-14T18:03:08.476Z,44.80
2018-01-14T18:05:36.286Z,44.90
2018-01-14T18:08:04.448Z,42.47
2018-01-14T18:10:31.940Z,45.30
2018-01-14T18:12:59.420Z,40.40
2018-01-14T18:15:27.754Z,39.13
2018-01-14T18:17:55.296Z,42.60
2018-01-14T18:20:22.783Z,37.80
2018-01-14T18:22:50.339Z,38.37
2018-01-14T18:25:17.836Z,37.77
2018-01-14T18:27:46.089Z,36.20
2018-01-14T18:30:13.580Z,40.03
2018-01-14T18:32:41.849Z,39.70
2018-01-14T18:35:10.124Z,39.93
2018-01-14T18:37:38.384Z,38.50
2018-01-14T18:40:05.970Z,35.73
2018-01-14T18:42:34.447Z,37.77
2018-01-14T18:45:02.700Z,35.80
2018-01-14T18:47:30.372Z,37.97
2018-01-14T18:49:57.912Z,37.60
2018-01-14T18:52:26.236Z,37.00
2018-01-14T18:54:55.313Z,37.60
2018-01-14T18:57:23.439Z,39.37
2018-01-14T18:59:51.812Z,35.40
2018-01-14T19:02:19.646Z,35.60
2018-01-14T19:04:47.842Z,36.47
2018-01-14T19:07:16.413Z,36.13
2018-01-14T19:09:44.758Z,40.30
2018-01-14T19:12:14.087Z,40.63
2018-01-14T19:14:43.528Z,38.33
2018-01-14T19:17:11.143Z,39.20
2018-01-14T19:19:39.472Z,42.13
2018-01-14T19:22:06.960Z,40.00
2018-01-14T19:24:34.527Z,41.17
2018-01-14T19:27:02.922Z,40.13
2018-01-14T19:29:33.017Z,38.63
2018-01-14T19:32:00.573Z,38.63
2018-01-14T19:34:28.901Z,40.77
2018-01-14T19:36:56.422Z,38.13
2018-01-14T19:39:23.984Z,37.77
2018-01-14T19:41:51.497Z,39.60
2018-01-14T19:44:19.029Z,36.93
2018-01-14T19:46:47.305Z,38.47
2018-01-14T19:49:14.777Z,36.67
2018-01-14T19:51:43.105Z,37.47
2018-01-14T19:54:10.611Z,37.90
2018-01-14T19:56:38.879Z,39.20
2018-01-14T19:59:07.116Z,37.30
2018-01-14T20:01:35.107Z,39.57
2018-01-14T20:04:03.061Z,38.70
2018-01-14T20:06:31.740Z,37.70
2018-01-14T20:08:59.461Z,41.37
2018-01-14T20:11:29.297Z,38.50
2018-01-14T20:13:56.937Z,37.13
2018-01-14T20:16:25.531Z,38.60
2018-01-14T20:18:53.639Z,38.60
2018-01-14T20:21:22.203Z,40.80
2018-01-14T20:23:50.295Z,35.60
2018-01-14T20:26:18.694Z,40.90
2018-01-14T20:28:46.420Z,37.93
2018-01-14T20:31:14.102Z,39.20
2018-01-14T20:33:41.728Z,38.20
2018-01-14T20:36:10.108Z,38.83
2018-01-14T20:38:38.554Z,37.80
2018-01-14T20:41:06.887Z,38.13
2018-01-14T20:43:34.594Z,39.33
2018-01-14T20:46:02.209Z,37.63
2018-01-14T20:48:30.367Z,35.43
2018-01-14T20:50:59.398Z,36.73
2018-01-14T20:53:27.158Z,36.03
2018-01-14T20:55:55.056Z,36.60
2018-01-14T20:58:23.528Z,39.13
2018-01-14T21:00:51.185Z,37.60
2018-01-14T21:03:19.545Z,38.17
2018-01-14T21:05:47.419Z,36.73
2018-01-14T21:08:15.111Z,39.23
2018-01-14T21:10:43.148Z,37.53
2018-01-14T21:13:11.900Z,38.27
2018-01-14T21:15:40.785Z,37.50
2018-01-14T21:18:09.249Z,37.87
2018-01-14T21:20:37.374Z,36.97
2018-01-14T21:23:05.969Z,39.13
2018-01-14T21:25:33.444Z,35.47
2018-01-14T21:28:01.194Z,36.93
2018-01-14T21:30:29.986Z,37.77
2018-01-14T21:32:58.006Z,36.60
2018-01-14T21:35:26.141Z,37.77
2018-01-14T21:37:54.256Z,38.33
2018-01-14T21:40:21.894Z,38.87
2018-01-14T21:42:49.663Z,39.57
2018-01-14T21:45:17.761Z,37.97
2018-01-14T21:47:46.362Z,38.00
2018-01-14T21:50:15.272Z,36.60
2018-01-14T21:52:43.400Z,37.40
2018-01-14T21:55:11.533Z,38.63
2018-01-14T21:57:39.157Z,37.90
2018-01-14T22:00:09.959Z,36.67
2018-01-14T22:02:37.586Z,40.53
2018-01-14T22:05:05.855Z,35.10
2018-01-14T22:07:34.321Z,37.57
2018-01-14T22:10:03.851Z,36.67
2018-01-14T22:12:32.130Z,34.17
2018-01-14T22:15:00.102Z,35.20
2018-01-14T22:17:29.088Z,33.57
2018-01-14T22:19:57.146Z,35.50
2018-01-14T22:22:26.416Z,34.70
2018-01-14T22:24:54.118Z,34.30
2018-01-14T22:27:23.185Z,44.73
2018-01-14T22:29:51.131Z,35.40
2018-01-14T22:32:19.169Z,35.60
2018-01-14T22:34:47.150Z,34.10
2018-01-14T22:37:14.789Z,41.50
2018-01-14T22:39:43.187Z,38.30
2018-01-14T22:42:10.741Z,42.97
2018-01-14T22:44:38.481Z,41.43
2018-01-14T22:47:07.252Z,35.07
2018-01-14T22:49:36.643Z,37.23
2018-01-14T22:52:05.453Z,39.13
2018-01-14T22:54:33.259Z,46.20
2018-01-14T22:57:01.086Z,40.13
2018-01-14T22:59:29.359Z,34.40
2018-01-14T23:01:57.079Z,35.67
2018-01-14T23:04:25.021Z,40.60
2018-01-14T23:06:53.535Z,39.53
2018-01-14T23:09:21.495Z,42.07
2018-01-14T23:11:49.890Z,40.83
2018-01-14T23:14:18.010Z,46.97
2018-01-14T23:16:46.431Z,45.10
2018-01-14T23:19:13.926Z,40.73
2018-01-14T23:21:41.748Z,44.00
2018-01-14T23:24:09.520Z,44.67
2018-01-14T23:26:38.490Z,51.03
2018-01-14T23:29:07.352Z,44.33
2018-01-14T23:31:35.986Z,49.87
2018-01-14T23:34:03.992Z,49.27
2018-01-14T23:36:32.051Z,51.13
2018-01-14T23:39:00.109Z,50.93
2018-01-14T23:41:28.449Z,48.70
2018-01-14T23:43:57.247Z,49.73
2018-01-14T23:46:26.312Z,51.10
2018-01-14T23:48:54.530Z,51.83
2018-01-14T23:51:23.471Z,50.47
2018-01-14T23:53:51.529Z,50.63
2018-01-14T23:56:19.915Z,49.90
2018-01-14T23:58:48.317Z,50.63
